Time;durP1;ratioP1;P1;durP2;ratioP2;P2;SDS_P1;SDS_P2;PMS_P1;PMS_P2;Temp;Humidity;BMP_temperature;BMP_pressure;BME280_temperature;BME280_humidity;BME280_pressure;Samples;Min_cycle;Max_cycle;Signal;HPM_P1;HPM_P2
2023/11/20 00:02:18;;;;;;;19.40;8.00;;;;;;;3.99;79.39;98280.79;105690;1258;96612;-72
2023/11/20 00:04:46;;;;;;;21.10;8.50;;;;;;;4.01;79.34;98280.51;105260;1257;110118;-73
2023/11/20 00:07:14;;;;;;;21.50;8.80;;;;;;;4.02;79.38;98279.21;105454;1267;96529;-73
2023/11/20 00:09:42;;;;;;;20.20;7.60;;;;;;;4.05;79.27;98280.67;105590;1256;107174;-72
2023/11/20 00:12:10;;;;;;;19.10;8.00;;;;;;;4.06;79.44;98279.18;105345;1256;96581;-73
2023/11/20 00:14:38;;;;;;;20.20;7.50;;;;;;;4.08;79.40;98282.20;105469;1256;96609;-73
2023/11/20 00:17:06;;;;;;;18.80;8.00;;;;;;;4.10;79.46;98280.14;105300;1256;109990;-72
2023/11/20 00:19:34;;;;;;;20.60;8.40;;;;;;;4.12;79.30;98277.55;105549;1256;96584;-72
2023/11/20 00:22:02;;;;;;;20.70;7.20;;;;;;;4.13;79.42;98275.74;105481;1256;107786;-73
2023/11/20 00:24:30;;;;;;;20.90;7.60;;;;;;;4.15;79.48;98279.16;105625;1257;96632;-73
2023/11/20 00:26:58;;;;;;;20.80;8.30;;;;;;;4.17;79.58;98281.16;105240;1254;96627;-75
2023/11/20 00:29:26;;;;;;;17.80;7.00;;;;;;;4.21;79.30;98285.35;105398;1254;110065;-73
2023/11/20 00:31:54;;;;;;;16.90;7.60;;;;;;;4.23;79.42;98286.46;105460;1253;97414;-73
2023/11/20 00:34:22;;;;;;;18.80;7.90;;;;;;;4.24;79.53;98288.84;105426;1256;107775;-73
2023/11/20 00:36:49;;;;;;;21.20;8.30;;;;;;;4.25;79.46;98283.34;105492;1256;97907;-73
2023/11/20 00:39:19;;;;;;;19.00;8.10;;;;;;;4.27;79.43;98288.50;105365;1257;96862;-72
2023/11/20 00:41:47;;;;;;;19.90;8.10;;;;;;;4.26;79.41;98293.23;105885;1256;109956;-73
2023/11/20 00:44:15;;;;;;;20.20;8.40;;;;;;;4.28;79.47;98291.77;105707;1253;97494;-72
2023/11/20 00:46:42;;;;;;;21.10;8.20;;;;;;;4.27;79.45;98292.66;105508;1256;107175;-72
2023/11/20 00:49:11;;;;;;;18.40;8.30;;;;;;;4.27;79.40;98293.77;105540;1253;96647;-72
2023/11/20 00:51:38;;;;;;;19.50;7.70;;;;;;;4.27;79.31;98294.95;105803;1253;96587;-73
2023/11/20 00:54:06;;;;;;;19.30;7.80;;;;;;;4.29;79.31;98296.74;105642;1253;109987;-73
2023/11/20 00:56:34;;;;;;;17.90;7.40;;;;;;;4.30;79.48;98297.38;105423;1256;96597;-73
2023/11/20 00:59:03;;;;;;;19.20;7.30;;;;;;;4.33;79.40;98293.92;105422;1256;106587;-73
2023/11/20 01:01:35;;;;;;;18.60;7.30;;;;;;;4.33;79.52;98293.89;105520;1256;96517;-71
2023/11/20 01:04:04;;;;;;;20.40;7.70;;;;;;;4.35;79.49;98288.00;105555;1256;97323;-73
2023/11/20 01:06:38;;;;;;;18.40;7.70;;;;;;;4.36;79.47;98287.96;105288;1267;110056;-74
2023/11/20 01:09:07;;;;;;;19.30;8.50;;;;;;;4.37;79.56;98288.06;105400;1258;97514;-74
2023/11/20 01:11:36;;;;;;;21.30;8.60;;;;;;;4.36;79.39;98286.68;105458;1254;106459;-73
2023/11/20 01:14:06;;;;;;;19.70;8.70;;;;;;;4.37;79.48;98288.61;105285;1257;96629;-72
2023/11/20 01:16:33;;;;;;;19.90;8.70;;;;;;;4.37;79.52;98291.21;105235;1256;96508;-73
2023/11/20 01:19:01;;;;;;;19.30;8.00;;;;;;;4.37;79.56;98290.19;105288;1256;109643;-73
2023/11/20 01:21:29;;;;;;;18.70;8.10;;;;;;;4.38;79.49;98294.34;105549;1256;97777;-71
2023/11/20 01:23:57;;;;;;;17.00;7.80;;;;;;;4.39;79.48;98298.67;105305;1259;107340;-72
2023/11/20 01:26:25;;;;;;;18.10;7.80;;;;;;;4.40;79.62;98299.79;105281;1257;97845;-71
2023/11/20 01:28:53;;;;;;;19.60;7.60;;;;;;;4.42;79.63;98297.21;105409;1257;96628;-73
2023/11/20 01:31:21;;;;;;;23.40;8.70;;;;;;;4.44;79.70;98296.05;105230;1256;108500;-72
2023/11/20 01:33:49;;;;;;;23.30;9.10;;;;;;;4.46;79.79;98298.41;105473;1258;96721;-72
2023/11/20 01:36:17;;;;;;;17.70;7.30;;;;;;;4.49;79.75;98301.77;105469;1268;107245;-73
2023/11/20 01:38:45;;;;;;;18.40;7.90;;;;;;;4.52;79.74;98304.19;105449;1254;97550;-72
2023/11/20 01:41:12;;;;;;;21.20;8.80;;;;;;;4.54;79.64;98305.48;105163;1259;96616;-73
2023/11/20 01:43:40;;;;;;;17.80;7.50;;;;;;;4.55;79.66;98306.16;105521;1256;109493;-72
2023/11/20 01:46:11;;;;;;;20.00;7.70;;;;;;;4.56;79.66;98306.44;105435;1256;97721;-72
2023/11/20 01:48:40;;;;;;;19.70;9.10;;;;;;;4.56;79.81;98301.31;105398;1256;108059;-73
2023/11/20 01:51:08;;;;;;;19.10;8.90;;;;;;;4.57;79.69;98298.79;105422;1254;97518;-73
2023/11/20 01:53:38;;;;;;;23.00;8.20;;;;;;;4.57;79.73;98297.54;105448;1257;96597;-72
2023/11/20 01:56:10;;;;;;;20.00;8.50;;;;;;;4.57;79.75;98294.57;105393;1256;109471;-72
2023/11/20 01:58:38;;;;;;;22.00;8.50;;;;;;;4.57;79.79;98296.56;105207;1256;96610;-75
2023/11/20 02:01:07;;;;;;;19.80;8.60;;;;;;;4.57;79.73;98296.35;105103;1257;107312;-73
2023/11/20 02:03:35;;;;;;;21.50;9.00;;;;;;;4.56;79.68;98293.98;105659;1253;96594;-72
2023/11/20 02:06:03;;;;;;;17.90;8.10;;;;;;;4.55;79.74;98289.64;106073;1254;96628;-74
2023/11/20 02:08:31;;;;;;;20.90;9.00;;;;;;;4.52;79.65;98286.84;105197;1256;109961;-73
2023/11/20 02:11:00;;;;;;;20.60;7.90;;;;;;;4.49;79.73;98285.77;105317;1257;96821;-73
2023/11/20 02:13:30;;;;;;;17.10;8.40;;;;;;;4.46;79.68;98286.84;105482;1256;107921;-72
2023/11/20 02:15:58;;;;;;;17.50;7.30;;;;;;;4.43;79.65;98286.27;105649;1254;96569;-73
2023/11/20 02:18:33;;;;;;;18.50;7.50;;;;;;;4.41;79.86;98283.80;105706;1256;96589;-73
2023/11/20 02:21:04;;;;;;;21.10;8.70;;;;;;;4.36;79.70;98285.13;105279;1254;110177;-73
2023/11/20 02:23:33;;;;;;;19.50;7.70;;;;;;;4.34;79.89;98283.13;105440;1256;96594;-72
2023/11/20 02:26:09;;;;;;;17.20;8.10;;;;;;;4.29;79.77;98290.30;105452;1256;107039;-70
2023/11/20 02:28:39;;;;;;;18.60;7.80;;;;;;;4.28;79.65;98291.04;105153;1257;96577;-72
2023/11/20 02:31:07;;;;;;;17.60;7.40;;;;;;;4.28;79.86;98293.33;105514;1253;97893;-73
2023/11/20 02:33:39;;;;;;;17.70;7.50;;;;;;;4.26;79.91;98292.05;105535;1256;109839;-72
2023/11/20 02:36:07;;;;;;;16.70;7.20;;;;;;;4.27;79.78;98295.36;105451;1256;96584;-73
2023/11/20 02:38:36;;;;;;;19.10;8.70;;;;;;;4.27;79.97;98296.20;105303;1256;107705;-71
2023/11/20 02:41:04;;;;;;;18.80;7.90;;;;;;;4.27;80.06;98296.91;105315;1253;96514;-73
2023/11/20 02:43:38;;;;;;;15.20;6.40;;;;;;;4.27;79.93;98293.23;105354;1256;96418;-74
2023/11/20 02:46:06;;;;;;;17.40;6.90;;;;;;;4.29;80.03;98299.05;105673;1256;110080;-73
2023/11/20 02:48:34;;;;;;;20.80;7.10;;;;;;;4.27;79.88;98301.61;105509;1253;96619;-72
2023/11/20 02:51:04;;;;;;;17.00;7.50;;;;;;;4.26;80.12;98299.42;105182;1256;107586;-72
2023/11/20 02:53:32;;;;;;;14.30;6.30;;;;;;;4.24;79.94;98297.94;105325;1256;96663;-72
2023/11/20 02:56:00;;;;;;;18.20;7.10;;;;;;;4.25;79.89;98298.27;105614;1256;96937;-72
2023/11/20 02:58:28;;;;;;;17.20;6.70;;;;;;;4.25;80.05;98294.89;105549;1256;109977;-72
2023/11/20 03:00:57;;;;;;;16.30;7.30;;;;;;;4.24;80.06;98292.33;105527;1259;96638;-72
2023/11/20 03:03:25;;;;;;;16.00;6.70;;;;;;;4.23;80.15;98289.40;105422;1256;107229;-72
2023/11/20 03:05:53;;;;;;;14.90;6.10;;;;;;;4.23;80.11;98290.31;105487;1254;96690;-73
2023/11/20 03:08:22;;;;;;;16.00;7.10;;;;;;;4.24;80.00;98293.22;105589;1254;96581;-72
2023/11/20 03:10:50;;;;;;;16.50;6.90;;;;;;;4.26;80.19;98292.07;105494;1256;110089;-72
2023/11/20 03:13:18;;;;;;;13.90;6.00;;;;;;;4.26;79.97;98293.28;105392;1257;96517;-72
2023/11/20 03:15:46;;;;;;;15.60;6.20;;;;;;;4.27;79.98;98288.30;105385;1259;106527;-72
2023/11/20 03:18:14;;;;;;;16.40;6.90;;;;;;;4.28;80.20;98289.61;105456;1253;96614;-73
2023/11/20 03:20:42;;;;;;;18.40;6.80;;;;;;;4.28;80.23;98289.48;105282;1256;96597;-72
2023/11/20 03:23:13;;;;;;;15.30;5.90;;;;;;;4.28;80.06;98283.52;105425;1254;108422;-72
2023/11/20 03:25:41;;;;;;;15.00;6.50;;;;;;;4.29;80.20;98284.52;105596;1256;96578;-74
2023/11/20 03:28:10;;;;;;;16.00;5.90;;;;;;;4.29;80.00;98284.11;105641;1256;107375;-73
2023/11/20 03:30:38;;;;;;;15.20;6.00;;;;;;;4.30;80.03;98282.46;105512;1259;96640;-73
2023/11/20 03:33:07;;;;;;;16.40;6.00;;;;;;;4.32;80.12;98282.73;105606;1253;96519;-73
2023/11/20 03:35:35;;;;;;;15.20;5.60;;;;;;;4.31;80.05;98282.79;105110;1254;110013;-72
2023/11/20 03:38:03;;;;;;;16.50;5.80;;;;;;;4.33;79.93;98278.48;105312;1256;97910;-72
2023/11/20 03:40:31;;;;;;;15.50;6.00;;;;;;;4.31;80.44;98272.76;105553;1258;107687;-72
2023/11/20 03:42:59;;;;;;;15.40;5.90;;;;;;;4.29;80.14;98272.92;105222;1256;97912;-72
2023/11/20 03:45:27;;;;;;;15.20;5.60;;;;;;;4.28;80.10;98271.58;105447;1252;96570;-72
2023/11/20 03:47:54;;;;;;;14.80;5.50;;;;;;;4.29;80.05;98270.98;105586;1253;109320;-72
2023/11/20 03:50:22;;;;;;;15.00;5.50;;;;;;;4.30;80.12;98267.90;105510;1268;96644;-72
2023/11/20 03:52:51;;;;;;;15.00;5.80;;;;;;;4.29;80.26;98266.73;105614;1257;107455;-72
2023/11/20 03:55:19;;;;;;;16.20;5.50;;;;;;;4.27;80.16;98260.04;105484;1257;96588;-73
2023/11/20 03:57:47;;;;;;;14.60;5.40;;;;;;;4.28;80.20;98268.09;105297;1258;97502;-73
2023/11/20 04:00:15;;;;;;;13.20;5.30;;;;;;;4.30;80.09;98268.46;105418;1254;109460;-73
2023/11/20 04:02:44;;;;;;;15.30;5.70;;;;;;;4.31;80.21;98261.73;105652;1253;96564;-73
2023/11/20 04:05:12;;;;;;;12.70;5.40;;;;;;;4.27;80.27;98254.58;105446;1252;107135;-72
2023/11/20 04:07:39;;;;;;;12.70;4.40;;;;;;;4.27;80.17;98255.84;105502;1258;96605;-72
2023/11/20 04:10:08;;;;;;;9.50;4.70;;;;;;;4.30;80.15;98257.23;105332;1252;96581;-72
2023/11/20 04:12:36;;;;;;;10.60;4.90;;;;;;;4.30;80.36;98255.44;105259;1256;109482;-72
2023/11/20 04:15:04;;;;;;;13.70;4.80;;;;;;;4.31;80.30;98252.06;105576;1256;96604;-72
2023/11/20 04:17:33;;;;;;;9.70;4.40;;;;;;;4.30;80.51;98250.70;105250;1258;107714;-71
2023/11/20 04:20:03;;;;;;;12.70;4.90;;;;;;;4.32;80.51;98253.23;105254;1256;96710;-72
2023/11/20 04:22:32;;;;;;;9.90;4.70;;;;;;;4.32;80.44;98249.54;105459;1254;97528;-72
2023/11/20 04:25:00;;;;;;;8.50;4.00;;;;;;;4.34;80.42;98252.60;105435;1253;111104;-72
2023/11/20 04:27:28;;;;;;;9.80;4.20;;;;;;;4.37;80.44;98248.91;105543;1254;96530;-72
2023/11/20 04:29:56;;;;;;;10.10;5.10;;;;;;;4.36;80.44;98251.59;105526;1256;108083;-72
2023/11/20 04:32:25;;;;;;;12.30;4.20;;;;;;;4.38;80.31;98255.19;105410;1252;97912;-72
2023/11/20 04:34:53;;;;;;;14.60;4.80;;;;;;;4.39;80.52;98252.84;105492;1256;97199;-73
2023/11/20 04:37:21;;;;;;;12.00;4.20;;;;;;;4.36;80.37;98254.39;105693;1254;109931;-72
2023/11/20 04:39:52;;;;;;;7.90;4.10;;;;;;;4.36;80.42;98249.46;105582;1256;96533;-73
2023/11/20 04:42:20;;;;;;;9.70;4.60;;;;;;;4.37;80.43;98255.23;105666;1256;107792;-72
2023/11/20 04:44:48;;;;;;;11.50;4.30;;;;;;;4.37;80.37;98247.31;105684;1256;96591;-73
2023/11/20 04:47:16;;;;;;;9.70;4.10;;;;;;;4.39;80.22;98245.27;105396;1254;96666;-72
2023/11/20 04:49:43;;;;;;;9.10;4.10;;;;;;;4.42;80.28;98247.77;105293;1260;110096;-73
2023/11/20 04:52:11;;;;;;;10.20;4.00;;;;;;;4.43;80.38;98244.71;105340;1254;97624;-73
2023/11/20 04:54:39;;;;;;;13.40;4.90;;;;;;;4.43;80.37;98246.45;105738;1256;107627;-73
2023/11/20 04:57:09;;;;;;;11.90;4.40;;;;;;;4.44;80.55;98246.55;105479;1253;96671;-72
2023/11/20 04:59:37;;;;;;;10.80;4.00;;;;;;;4.44;80.42;98248.52;105265;1256;97807;-73
2023/11/20 05:02:05;;;;;;;13.20;4.30;;;;;;;4.47;80.43;98253.59;105218;1260;109400;-73
2023/11/20 05:04:33;;;;;;;10.30;4.20;;;;;;;4.49;80.30;98252.05;105345;1257;97933;-72
2023/11/20 05:07:02;;;;;;;10.90;4.60;;;;;;;4.50;80.42;98252.33;105333;1256;107271;-72
2023/11/20 05:09:30;;;;;;;9.00;4.10;;;;;;;4.51;80.36;98251.56;105534;1257;96565;-73
2023/11/20 05:12:00;;;;;;;10.00;4.80;;;;;;;4.54;80.34;98254.95;105393;1256;98051;-73
2023/11/20 05:14:28;;;;;;;11.10;4.00;;;;;;;4.54;80.39;98250.16;107299;1253;109973;-72
2023/11/20 05:16:56;;;;;;;15.60;5.50;;;;;;;4.55;80.33;98252.41;105428;1254;96645;-73
2023/11/20 05:19:24;;;;;;;9.20;3.80;;;;;;;4.57;80.43;98251.18;105421;1259;107157;-74
2023/11/20 05:21:52;;;;;;;11.20;4.80;;;;;;;4.57;80.31;98252.45;105245;1257;97915;-72
2023/11/20 05:24:20;;;;;;;14.80;5.00;;;;;;;4.57;80.44;98245.43;105205;1254;96511;-72
2023/11/20 05:26:48;;;;;;;10.50;3.90;;;;;;;4.58;80.43;98244.67;105446;1259;109849;-71
2023/11/20 05:29:19;;;;;;;10.10;4.80;;;;;;;4.59;80.45;98248.44;105452;1253;96661;-81
2023/11/20 05:31:46;;;;;;;13.20;4.80;;;;;;;4.62;80.42;98246.73;105190;1267;107746;-74
2023/11/20 05:34:14;;;;;;;14.80;4.70;;;;;;;4.64;80.44;98245.01;105634;1254;96591;-75
2023/11/20 05:36:42;;;;;;;9.80;3.80;;;;;;;4.64;80.55;98247.80;105498;1257;96622;-72
2023/11/20 05:39:11;;;;;;;13.70;4.40;;;;;;;4.63;80.42;98249.83;105012;1260;109004;-72
2023/11/20 05:41:39;;;;;;;6.60;3.80;;;;;;;4.66;80.65;98253.70;105466;1254;96614;-71
2023/11/20 05:44:07;;;;;;;10.50;4.30;;;;;;;4.67;80.42;98255.88;105404;1259;106106;-76
2023/11/20 05:46:36;;;;;;;9.40;3.60;;;;;;;4.72;80.57;98253.12;105445;1253;96632;-77
2023/11/20 05:49:04;;;;;;;12.10;4.10;;;;;;;4.75;80.51;98256.27;105610;1253;96622;-76
2023/11/20 05:51:32;;;;;;;5.60;3.30;;;;;;;4.76;80.41;98261.63;105224;1261;109688;-77
2023/11/20 05:54:00;;;;;;;7.40;3.60;;;;;;;4.79;80.60;98261.50;105493;1253;96508;-77
2023/11/20 05:56:30;;;;;;;7.10;3.50;;;;;;;4.82;80.46;98257.98;105390;1254;107131;-77
2023/11/20 05:58:58;;;;;;;10.40;4.00;;;;;;;4.82;80.63;98259.88;105475;1254;96729;-77
2023/11/20 06:01:40;;;;;;;10.80;3.80;;;;;;;4.82;80.53;98264.45;105289;1259;97525;-79
2023/11/20 06:04:14;;;;;;;8.30;4.00;;;;;;;4.84;80.55;98266.61;105460;1269;110025;-82
2023/11/20 06:06:43;;;;;;;11.70;4.20;;;;;;;4.86;80.64;98264.20;106053;1257;97837;-78
2023/11/20 06:09:10;;;;;;;11.60;3.90;;;;;;;4.86;80.55;98266.65;106694;1257;108360;-81
2023/11/20 06:11:47;;;;;;;10.50;3.60;;;;;;;4.88;80.56;98266.73;105737;1256;97927;-76
2023/11/20 06:14:16;;;;;;;9.30;3.80;;;;;;;4.89;80.60;98268.55;105540;1257;97835;-76
2023/11/20 06:16:48;;;;;;;10.10;4.30;;;;;;;4.90;80.57;98269.55;105724;1253;108970;-72
2023/11/20 06:19:16;;;;;;;10.10;3.30;;;;;;;4.90;80.57;98269.54;107439;1253;95306;-76
2023/11/20 06:21:49;;;;;;;10.70;4.00;;;;;;;4.92;80.56;98274.69;106893;1254;107439;-76
2023/11/20 06:24:19;;;;;;;11.00;3.70;;;;;;;4.93;80.56;98277.80;105603;1256;96705;-75
2023/11/20 06:26:47;;;;;;;10.20;3.90;;;;;;;4.96;80.52;98278.68;105554;1254;96744;-75
2023/11/20 06:29:15;;;;;;;11.30;4.90;;;;;;;4.98;80.62;98276.27;105532;1256;110335;-75
2023/11/20 06:31:43;;;;;;;10.20;3.70;;;;;;;4.98;80.50;98278.91;105373;1254;96613;-75
2023/11/20 06:34:11;;;;;;;10.80;3.60;;;;;;;5.00;80.60;98280.60;105645;1256;107786;-74
2023/11/20 06:36:39;;;;;;;8.50;3.50;;;;;;;4.99;80.54;98288.89;105452;1256;97731;-75
2023/11/20 06:39:07;;;;;;;10.30;4.70;;;;;;;4.98;80.68;98293.69;105759;1256;96507;-74
2023/11/20 06:41:37;;;;;;;12.30;4.60;;;;;;;4.98;80.67;98294.23;105360;1257;109871;-76
2023/11/20 06:44:05;;;;;;;12.40;4.90;;;;;;;4.98;80.63;98299.14;105385;1256;96562;-74
2023/11/20 06:46:33;;;;;;;13.70;5.00;;;;;;;4.99;80.66;98297.84;105608;1256;108565;-76
2023/11/20 06:49:01;;;;;;;14.70;4.40;;;;;;;5.01;80.62;98298.98;105376;1259;96633;-75
2023/11/20 06:51:29;;;;;;;11.10;4.50;;;;;;;5.00;80.70;98304.27;105247;1256;96682;-75
2023/11/20 06:53:58;;;;;;;19.50;7.10;;;;;;;5.01;80.81;98301.08;105481;1256;109905;-75
2023/11/20 06:56:26;;;;;;;19.80;6.20;;;;;;;4.99;80.85;98304.19;105186;1256;96612;-75
2023/11/20 06:58:56;;;;;;;13.20;5.30;;;;;;;4.99;80.76;98305.75;105268;1254;107741;-77
2023/11/20 07:01:24;;;;;;;13.30;4.90;;;;;;;4.99;80.79;98301.02;105665;1256;96616;-76
2023/11/20 07:03:53;;;;;;;12.60;5.10;;;;;;;5.00;80.70;98307.96;105243;1256;96539;-75
2023/11/20 07:06:23;;;;;;;12.10;4.40;;;;;;;5.02;80.88;98305.40;105415;1254;109974;-75
2023/11/20 07:08:53;;;;;;;12.30;4.40;;;;;;;5.03;80.81;98304.98;105148;1259;97901;-78
2023/11/20 07:11:21;;;;;;;11.40;4.50;;;;;;;5.04;80.76;98305.29;105199;1254;107725;-77
2023/11/20 07:13:49;;;;;;;13.20;5.00;;;;;;;5.04;80.74;98312.84;105450;1254;96668;-75
2023/11/20 07:16:17;;;;;;;14.30;5.40;;;;;;;5.03;80.75;98307.45;105541;1258;96609;-75
2023/11/20 07:18:45;;;;;;;12.80;4.80;;;;;;;5.00;80.83;98310.29;105596;1252;109885;-76
2023/11/20 07:21:15;;;;;;;13.90;5.40;;;;;;;4.96;80.76;98309.96;105753;1254;96639;-75
2023/11/20 07:23:43;;;;;;;15.70;6.60;;;;;;;4.95;80.62;98311.97;105466;1254;107697;-76
2023/11/20 07:26:16;;;;;;;20.90;6.80;;;;;;;4.97;80.66;98311.34;105443;1256;97895;-75
2023/11/20 07:28:46;;;;;;;16.50;7.00;;;;;;;4.97;80.58;98317.83;105403;1258;96682;-76
2023/11/20 07:31:24;;;;;;;16.30;7.30;;;;;;;4.97;80.73;98316.41;105398;1256;111225;-75
2023/11/20 07:33:52;;;;;;;16.50;6.40;;;;;;;4.96;80.66;98317.73;105397;1270;96625;-75
2023/11/20 07:36:20;;;;;;;14.00;6.10;;;;;;;4.97;80.73;98323.30;105433;1256;106452;-74
2023/11/20 07:38:48;;;;;;;18.20;8.00;;;;;;;4.96;80.71;98318.77;105520;1256;96668;-74
2023/11/20 07:41:16;;;;;;;16.50;6.40;;;;;;;4.91;80.73;98315.02;105262;1256;97420;-75
2023/11/20 07:43:45;;;;;;;9.90;4.80;;;;;;;4.84;80.73;98319.00;105293;1254;109670;-77
2023/11/20 07:46:13;;;;;;;11.90;5.10;;;;;;;4.80;80.93;98315.01;105285;1254;97920;-74
2023/11/20 07:48:41;;;;;;;12.50;5.00;;;;;;;4.77;80.72;98318.84;105193;1256;106488;-75
2023/11/20 07:51:09;;;;;;;12.60;5.40;;;;;;;4.80;80.78;98323.41;105346;1256;96590;-73
2023/11/20 07:53:41;;;;;;;13.40;5.10;;;;;;;4.81;80.83;98324.61;105335;1259;96592;-75
2023/11/20 07:56:12;;;;;;;12.70;5.20;;;;;;;4.78;80.95;98324.77;105603;1256;109967;-75
2023/11/20 07:58:43;;;;;;;13.20;5.30;;;;;;;4.74;80.75;98322.57;105241;1258;96676;-75
2023/11/20 08:01:11;;;;;;;15.80;5.90;;;;;;;4.73;80.89;98320.67;105160;1259;107207;-75
2023/11/20 08:03:39;;;;;;;12.30;5.40;;;;;;;4.72;80.79;98323.52;105391;1257;96596;-75
2023/11/20 08:06:07;;;;;;;16.30;5.80;;;;;;;4.72;80.84;98324.58;105457;1256;96614;-74
2023/11/20 08:08:48;;;;;;;15.10;6.10;;;;;;;4.75;80.85;98326.50;105390;1256;109824;-76
2023/11/20 08:11:17;;;;;;;15.30;6.10;;;;;;;4.75;80.80;98325.30;105531;1254;95463;-75
2023/11/20 08:13:46;;;;;;;12.80;5.50;;;;;;;4.74;80.87;98328.34;105177;1269;107707;-76
2023/11/20 08:16:14;;;;;;;13.70;4.90;;;;;;;4.74;80.71;98327.14;105432;1259;96686;-75
2023/11/20 08:18:42;;;;;;;16.50;5.90;;;;;;;4.74;80.81;98327.80;105444;1254;97983;-75
2023/11/20 08:21:10;;;;;;;14.00;5.10;;;;;;;4.75;80.79;98326.16;105530;1254;109258;-74
2023/11/20 08:23:38;;;;;;;11.30;4.80;;;;;;;4.74;80.77;98326.55;105431;1256;96601;-76
2023/11/20 08:26:06;;;;;;;12.20;5.60;;;;;;;4.78;80.91;98329.69;105347;1266;107709;-76
2023/11/20 08:28:34;;;;;;;13.70;5.30;;;;;;;4.78;80.78;98333.20;105518;1256;96717;-75
2023/11/20 08:31:02;;;;;;;18.50;6.30;;;;;;;4.76;80.84;98331.89;105518;1256;96779;-75
2023/11/20 08:33:30;;;;;;;16.20;6.00;;;;;;;4.77;80.84;98334.65;105094;1259;109624;-77
2023/11/20 08:35:58;;;;;;;14.60;6.40;;;;;;;4.79;80.89;98328.07;105300;1256;96945;-76
2023/11/20 08:38:26;;;;;;;15.10;6.10;;;;;;;4.77;80.84;98326.23;105557;1275;107720;-74
2023/11/20 08:40:53;;;;;;;16.60;5.60;;;;;;;4.78;80.82;98325.84;105289;1256;96619;-77
2023/11/20 08:43:23;;;;;;;13.40;5.70;;;;;;;4.77;80.79;98325.50;105618;1254;96668;-75
2023/11/20 08:45:51;;;;;;;14.70;5.30;;;;;;;4.78;80.94;98327.05;105502;1256;109653;-76
2023/11/20 08:48:35;;;;;;;13.00;5.60;;;;;;;4.75;81.04;98323.73;105558;1256;96666;-77
2023/11/20 08:51:07;;;;;;;13.10;5.80;;;;;;;4.70;80.93;98323.66;105665;1256;107720;-75
2023/11/20 08:53:35;;;;;;;13.60;6.20;;;;;;;4.69;80.93;98322.48;105540;1256;97723;-75
2023/11/20 08:56:04;;;;;;;19.90;10.00;;;;;;;4.71;81.06;98320.48;105421;1256;97549;-75
2023/11/20 08:58:32;;;;;;;10.70;4.80;;;;;;;4.69;81.10;98320.52;105483;1256;110632;-75
2023/11/20 09:01:00;;;;;;;14.10;5.80;;;;;;;4.70;81.09;98321.23;105097;1259;96577;-76
2023/11/20 09:03:28;;;;;;;11.00;5.10;;;;;;;4.69;81.20;98313.70;105478;1275;107576;-75
2023/11/20 09:05:57;;;;;;;11.90;5.40;;;;;;;4.68;81.11;98313.97;105415;1257;96595;-76
2023/11/20 09:08:26;;;;;;;17.80;9.50;;;;;;;4.70;81.23;98312.44;105650;1256;96587;-74
2023/11/20 09:10:54;;;;;;;19.60;8.50;;;;;;;4.72;81.15;98316.70;105543;1258;109385;-76
2023/11/20 09:13:21;;;;;;;12.30;5.70;;;;;;;4.74;81.07;98311.64;105681;1253;96571;-75
2023/11/20 09:15:49;;;;;;;13.40;5.50;;;;;;;4.78;81.12;98309.52;105710;1256;107731;-75
2023/11/20 09:18:17;;;;;;;15.90;5.70;;;;;;;4.79;81.12;98310.11;105463;1258;97538;-75
2023/11/20 09:20:45;;;;;;;12.60;5.60;;;;;;;4.80;81.09;98311.46;105191;1256;96615;-76
2023/11/20 09:23:13;;;;;;;14.30;5.80;;;;;;;4.82;81.26;98310.47;105557;1256;109929;-75
2023/11/20 09:25:42;;;;;;;16.80;6.50;;;;;;;4.81;81.23;98311.79;105433;1254;96517;-76
2023/11/20 09:28:10;;;;;;;14.60;6.40;;;;;;;4.83;81.09;98315.87;105494;1256;107731;-74
2023/11/20 09:30:38;;;;;;;15.90;5.90;;;;;;;4.87;81.21;98312.61;105446;1254;97791;-75
2023/11/20 09:33:06;;;;;;;17.00;7.30;;;;;;;4.91;81.11;98314.88;105132;1257;96676;-76
2023/11/20 09:35:36;;;;;;;20.20;8.40;;;;;;;4.94;81.16;98312.88;105567;1256;109927;-74
2023/11/20 09:38:05;;;;;;;19.60;8.20;;;;;;;4.95;81.04;98316.02;105400;1256;96793;-75
2023/11/20 09:40:33;;;;;;;20.30;9.50;;;;;;;4.95;81.15;98317.22;105315;1254;107989;-75
2023/11/20 09:43:01;;;;;;;19.00;7.90;;;;;;;4.95;81.03;98321.45;105478;1256;96670;-77
2023/11/20 09:45:33;;;;;;;17.80;7.20;;;;;;;4.96;81.15;98316.99;105447;1259;97697;-75
2023/11/20 09:48:18;;;;;;;16.40;6.50;;;;;;;4.98;81.07;98313.72;105444;1256;109572;-75
2023/11/20 09:50:49;;;;;;;16.60;6.80;;;;;;;5.02;81.17;98310.86;105466;1259;96600;-76
2023/11/20 09:53:38;;;;;;;18.10;7.40;;;;;;;5.08;81.26;98313.96;105168;1256;107274;-75
2023/11/20 09:56:09;;;;;;;20.30;8.70;;;;;;;5.12;81.21;98304.04;105362;1256;96587;-75
2023/11/20 09:58:41;;;;;;;21.90;8.30;;;;;;;5.17;81.28;98299.73;105326;1257;97813;-75
2023/11/20 10:01:12;;;;;;;18.40;7.70;;;;;;;5.18;81.27;98297.88;105276;1259;109938;-76
2023/11/20 10:03:43;;;;;;;21.00;8.50;;;;;;;5.19;81.15;98292.58;105397;1258;96648;-76
2023/11/20 10:06:19;;;;;;;21.60;8.00;;;;;;;5.25;81.30;98290.29;105200;1259;107490;-75
2023/11/20 10:08:50;;;;;;;22.30;8.30;;;;;;;5.22;81.35;98283.96;105284;1254;96603;-75
2023/11/20 10:11:22;;;;;;;23.60;9.10;;;;;;;5.20;81.22;98286.67;105460;1256;96587;-76
2023/11/20 10:13:51;;;;;;;21.70;8.40;;;;;;;5.23;81.18;98282.83;105145;1259;109759;-76
2023/11/20 10:16:22;;;;;;;22.00;8.60;;;;;;;5.24;81.35;98281.86;105470;1254;97838;-76
2023/11/20 10:18:54;;;;;;;18.10;6.90;;;;;;;5.24;81.02;98284.01;105379;1260;106441;-76
2023/11/20 10:21:22;;;;;;;15.80;6.40;;;;;;;5.28;81.28;98281.27;105256;1256;96708;-76
2023/11/20 10:23:52;;;;;;;16.20;6.80;;;;;;;5.31;81.27;98276.69;105433;1256;97931;-76
2023/11/20 10:26:21;;;;;;;15.80;6.80;;;;;;;5.39;81.47;98273.92;105429;1256;111401;-76
2023/11/20 10:28:49;;;;;;;14.50;6.00;;;;;;;5.42;81.23;98276.52;105561;1254;96683;-72
2023/11/20 10:31:17;;;;;;;14.70;5.70;;;;;;;5.46;81.37;98277.70;105100;1254;108423;-75
2023/11/20 10:33:45;;;;;;;18.20;7.50;;;;;;;5.49;81.31;98274.85;105197;1254;96639;-73
2023/11/20 10:36:16;;;;;;;16.40;6.60;;;;;;;5.55;81.33;98275.70;105542;1256;96670;-74
2023/11/20 10:38:44;;;;;;;15.70;6.40;;;;;;;5.58;81.28;98273.23;105282;1259;109877;-75
2023/11/20 10:41:13;;;;;;;14.50;6.60;;;;;;;5.59;81.30;98271.74;105202;1259;96559;-76
2023/11/20 10:43:41;;;;;;;16.60;6.70;;;;;;;5.62;81.29;98268.21;105202;1264;107668;-78
2023/11/20 10:46:10;;;;;;;19.70;7.70;;;;;;;5.65;81.18;98264.14;105327;1256;97516;-77
2023/11/20 10:48:38;;;;;;;17.20;7.30;;;;;;;5.68;81.17;98260.29;105453;1257;96548;-79
2023/11/20 10:51:09;;;;;;;18.00;6.70;;;;;;;5.66;81.22;98261.41;105293;1254;110088;-78
2023/11/20 10:53:42;;;;;;;16.60;6.80;;;;;;;5.65;81.24;98251.14;105403;1261;96658;-80
2023/11/20 10:56:12;;;;;;;17.10;6.40;;;;;;;5.63;81.13;98252.66;105635;1256;107665;-79
2023/11/20 10:58:43;;;;;;;16.70;7.20;;;;;;;5.62;81.12;98250.80;105599;1268;96632;-79
2023/11/20 11:03:36;;;;;;;21.80;10.00;;;;;;;5.63;81.26;98251.81;102345;1295;635926;-81
2023/11/20 11:06:10;;;;;;;22.60;9.20;;;;;;;5.54;81.31;98258.91;105206;1264;94300;-78
2023/11/20 11:08:45;;;;;;;16.80;6.80;;;;;;;5.49;81.27;98255.51;105404;1254;94280;-79
2023/11/20 11:11:16;;;;;;;17.10;7.40;;;;;;;5.50;81.43;98251.53;105586;1256;107268;-79
2023/11/20 11:13:47;;;;;;;16.00;6.70;;;;;;;5.51;81.25;98251.70;105270;1270;95534;-80
2023/11/20 11:16:25;;;;;;;16.40;6.50;;;;;;;5.53;81.28;98251.95;105497;1251;189242;-78
2023/11/20 11:19:01;;;;;;;17.40;7.10;;;;;;;5.57;81.41;98252.05;105447;1257;94413;-80
2023/11/20 11:21:38;;;;;;;15.90;6.10;;;;;;;5.60;81.33;98247.94;105559;1252;94238;-78
2023/11/20 11:24:13;;;;;;;19.00;7.50;;;;;;;5.63;81.22;98248.45;105429;1256;106766;-78
2023/11/20 11:26:52;;;;;;;17.20;7.40;;;;;;;5.65;81.46;98249.02;105496;1257;95582;-77
2023/11/20 11:29:25;;;;;;;17.80;7.00;;;;;;;5.69;81.39;98245.97;105463;1253;106425;-79
2023/11/20 11:32:06;;;;;;;18.50;7.00;;;;;;;5.71;81.41;98244.02;105577;1257;95340;-77
2023/11/20 11:34:52;;;;;;;16.60;6.70;;;;;;;5.74;81.30;98241.77;105629;1256;95254;-78